• Join FlightAware (Why Join?)
  • Login
  • US Flag 
03:52PM EDT


 

Airport Tracker/Info


-or-


 

Live Flight TrackerFlight Track Log ✈ N508QS ✈ 04-Jun-2013 ✈ KPDK - KMKC

Flight Track Log - Related Links

Times and Time Zones

All times are in EDT time to prevent confusion due to time zone crossing. See the N508QS flight status page for this flight to view local times or setup timezone preferences in your user account.

Time Position Orientation Groundspeed Altitude Reporting Facility
EDT Latitude Longitude Course Direction KTS MPH feet Rate Location/Type
07:27PM 33.8833 -84.4000 301° West 230 265 4,700  Level Atlanta TRACON
07:28PM 33.9167 -84.4833 296° West 275 316 9,300 2,580 Climbing Atlanta TRACON
07:30PM 33.9181 -84.6144 271° West 331 381 10,900 660 Climbing Atlanta Center
07:31PM 33.8739 -84.7219 244° Southwest 351 404 11,000 420 Climbing Atlanta Center
07:32PM 33.8147 -84.8314 237° Southwest 363 418 11,800 600 Climbing Atlanta Center
07:33PM 33.7700 -84.9383 243° Southwest 369 425 12,200 660 Climbing Atlanta Center
07:34PM 33.7669 -85.0633 268° West 361 415 13,200 960 Climbing Atlanta Center
07:35PM 33.7722 -85.1883 273° West 371 427 14,200 1,320 Climbing Atlanta Center
07:36PM 33.7856 -85.3161 277° West 388 447 15,900 2,580 Climbing Atlanta Center
07:37PM 33.8008 -85.4461 278° West 388 447 19,400 3,000 Climbing Atlanta Center
07:38PM 33.8181 -85.5792 279° West 393 452 21,900 1,800 Climbing Atlanta Center
07:39PM 33.8372 -85.7144 280° West 405 466 23,100 960 Climbing Atlanta Center
07:40PM 33.8500 -85.8322 277° West 412 474 23,900 900 Climbing Atlanta Center
07:41PM 33.8708 -85.9703 280° West 412 474 24,900 960 Climbing Atlanta Center
07:42PM 33.8894 -86.1133 279° West 418 481 25,900 1,200 Climbing Atlanta Center
07:43PM 33.9119 -86.2567 281° West 430 495 27,400 1,620 Climbing Atlanta Center
07:44PM 33.9342 -86.4072 280° West 445 512 29,200 2,220 Climbing Atlanta Center
07:45PM 33.9561 -86.5633 280° West 461 531 31,900 2,340 Climbing Atlanta Center
07:46PM 33.9947 -86.7122 287° West 467 537 33,900 2,340 Climbing Atlanta Center
07:47PM 34.0417 -86.8542 292° West 467 537 36,600 2,580 Climbing Atlanta Center
07:48PM 34.1369 -87.0497 301° West 480 552 40,000 1,440 Climbing Memphis Center
07:49PM 34.2092 -87.1750 305° West 470 541 40,000  Level Memphis Center
07:50PM 34.2767 -87.2856 306° West 464 534 40,000  Level Memphis Center
07:51PM 34.3464 -87.4139 303° West 464 534 40,000 360 Level Memphis Center
07:52PM 34.4161 -87.5397 304° West 456 525 40,800 1,140 Climbing Memphis Center
07:53PM 34.4900 -87.6661 305° West 456 525 42,300 1,080 Climbing Memphis Center
07:54PM 34.5531 -87.7925 301° West 450 518 43,000 300 Climbing Memphis Center
07:55PM 34.6244 -87.9167 305° West 450 518 43,000  Level Memphis Center
07:56PM 34.6981 -88.0558 303° West 450 518 43,000  Level Memphis Center
07:57PM 34.7542 -88.1581 304° West 450 518 43,000  Level Memphis Center
07:58PM 34.8317 -88.3028 303° West 456 525 43,000  Level Memphis Center
07:59PM 34.8964 -88.4278 302° West 451 519 43,000  Level Memphis Center
08:00PM 34.9714 -88.5603 305° West 439 505 43,000  Level Memphis Center
08:01PM 35.0397 -88.6856 304° West 439 505 43,000  Level Memphis Center
08:02PM 35.1061 -88.8114 303° West 439 505 43,000  Level Memphis Center
08:03PM 35.1722 -88.9369 303° West 439 505 43,000  Level Memphis Center
08:04PM 35.2406 -89.0606 304° West 445 512 43,000  Level Memphis Center
08:05PM 35.3083 -89.1892 303° West 450 518 43,000  Level Memphis Center
08:06PM 35.3783 -89.3181 304° West 450 518 43,000  Level Memphis Center
08:07PM 35.4419 -89.4447 302° West 445 512 43,000  Level Memphis Center
08:08PM 35.5097 -89.5739 303° West 450 518 43,000  Level Memphis Center
08:09PM 35.5772 -89.7036 303° West 450 518 43,000  Level Memphis Center
08:10PM 35.6361 -89.8181 302° West 450 518 43,000  Level Memphis Center
08:11PM 35.6992 -89.9633 298° West 444 511 43,000  Level Memphis Center
08:12PM 35.7683 -90.0961 303° West 444 511 43,000  Level Memphis Center
08:13PM 35.8333 -90.2214 303° West 444 511 43,000  Level Memphis Center
08:14PM 35.9022 -90.3544 303° West 449 517 43,000  Level Memphis Center
08:15PM 35.9667 -90.4828 302° West 449 517 43,000  Level Memphis Center
08:16PM 36.0250 -90.5983 302° West 449 517 43,000  Level Memphis Center
08:17PM 36.0892 -90.7269 302° West 449 517 43,000  Level Memphis Center
08:18PM 36.1703 -90.8506 309° West 449 517 43,000  Level Memphis Center
08:19PM 36.2531 -90.9669 311° West 455 524 43,000  Level Memphis Center
08:20PM 36.3358 -91.0808 312° West 450 518 43,000  Level Memphis Center
08:21PM 36.4144 -91.2003 309° West 450 518 43,000  Level Memphis Center
08:22PM 36.4969 -91.3119 313° West 450 518 43,000  Level Memphis Center
08:23PM 36.5772 -91.4319 310° West 450 518 43,000  Level Memphis Center
08:24PM 36.6575 -91.5492 311° West 450 518 43,000  Level Memphis Center
08:24PM 36.6742 -91.5694 316° Northwest 446 513 43,000  Level Kansas City Center
08:25PM 36.7542 -91.6883 310° West 445 512 43,000  Level Kansas City Center
08:26PM 36.8508 -91.8311 310° West 448 516 43,000  Level Kansas City Center
08:27PM 36.9311 -91.9492 310° West 446 513 43,000  Level Kansas City Center
08:28PM 37.0114 -92.0675 310° West 444 511 43,000  Level Kansas City Center
08:29PM 37.0914 -92.1853 310° West 443 510 43,000  Level Kansas City Center
08:30PM 37.1703 -92.3056 309° West 444 511 43,000  Level Kansas City Center
08:31PM 37.2492 -92.4239 310° West 441 507 43,000  Level Kansas City Center
08:32PM 37.3283 -92.5431 310° West 441 507 43,000  Level Kansas City Center
08:33PM 37.4069 -92.6642 309° West 442 509 43,000  Level Kansas City Center
08:34PM 37.4864 -92.7839 310° West 441 507 43,000 -540 Level Kansas City Center
08:35PM 37.5639 -92.9036 309° West 439 505 42,000 -1,680 Descending Kansas City Center
08:36PM 37.6572 -93.0472 309° West 437 503 39,600 -2,160 Descending Kansas City Center
08:37PM 37.7381 -93.1717 309° West 448 516 37,600 -2,040 Descending Kansas City Center
08:38PM 37.8211 -93.2975 310° West 458 527 35,500 -2,040 Descending Kansas City Center
08:40PM 37.9050 -93.4256 310° West 467 537 33,500 -2,100 Descending Kansas City Center
08:41PM 37.9875 -93.5558 309° West 470 541 31,200 -2,220 Descending Kansas City Center
08:42PM 38.0733 -93.6892 309° West 480 552 29,000 -2,100 Descending Kansas City Center
08:43PM 38.1728 -93.7925 321° Northwest 461 531 26,900 -2,100 Descending Kansas City Center
08:44PM 38.2894 -93.8586 336° Northwest 455 524 24,800 -2,040 Descending Kansas City Center
08:45PM 38.4042 -93.9228 336° Northwest 451 519 22,800 -2,040 Descending Kansas City Center
08:46PM 38.5208 -93.9911 335° Northwest 425 489 20,700 -1,920 Descending Kansas City Center
08:47PM 38.6189 -94.0469 336° Northwest 404 465 18,900 -1,860 Descending Kansas City Center
08:48PM 38.7258 -94.1242 331° Northwest 398 458 16,900 -2,100 Descending Kansas City Center
08:49PM 38.8025 -94.2058 320° Northwest 375 432 14,600 -2,640 Descending Kansas City Center
08:50PM 38.9011 -94.2742 332° Northwest 359 413 11,600 -2,520 Descending Kansas City Center
08:51PM 38.9739 -94.3311 329° Northwest 325 374 9,500 -2,100 Descending Kansas City Center
08:52PM 39.0544 -94.3883 331° Northwest 299 344 7,400 -1,800 Descending Kansas City Center
08:53PM 39.1239 -94.4356 332° Northwest 295 339 5,800 -1,860 Descending Kansas City Center
08:54PM 39.1936 -94.4675 340° North 280 322 3,600 -1,380 Descending Kansas City Center
08:55PM 39.2631 -94.4856 349° North 228 262 3,000 -300 Descending Kansas City Center
08:56PM 39.3053 -94.5186 329° Northwest 219 252 3,000  Level Kansas City Center
08:57PM 39.2586 -94.5544 211° Southwest 179 206 3,000 -300 Level Kansas City Center
08:58PM 39.2167 -94.5664 192° South 163 188 2,500 -660 Descending Kansas City Center
08:59PM 39.1808 -94.5769 193° South 136 157 1,700 -780 Descending Kansas City Center
09:00PM 39.1475 -94.5869 193° South 112 129 1,000 -720 Descending Kansas City Center